createdAt,value
2019-04-28T00:00:33.152Z,1011.85
2019-04-28T00:01:33.185Z,1011.84
2019-04-28T00:02:33.217Z,1011.85
2019-04-28T00:03:33.250Z,1011.87
2019-04-28T00:04:33.286Z,1011.85
2019-04-28T00:05:33.345Z,1011.90
2019-04-28T00:06:33.374Z,1011.90
2019-04-28T00:07:33.388Z,1011.90
2019-04-28T00:08:33.419Z,1011.88
2019-04-28T00:09:33.449Z,1011.91
2019-04-28T00:10:33.483Z,1011.98
2019-04-28T00:11:33.516Z,1011.96
2019-04-28T00:12:33.548Z,1011.96
2019-04-28T00:13:33.582Z,1011.98
2019-04-28T00:14:33.614Z,1011.96
2019-04-28T00:15:33.648Z,1011.99
2019-04-28T00:16:33.685Z,1012.02
2019-04-28T00:17:33.716Z,1012.00
2019-04-28T00:18:33.750Z,1012.00
2019-04-28T00:19:33.790Z,1012.00
2019-04-28T00:20:33.813Z,1012.02
2019-04-28T00:21:33.845Z,1012.01
2019-04-28T00:22:33.880Z,1012.03
2019-04-28T00:23:33.919Z,1012.02
2019-04-28T00:24:33.944Z,1012.05
2019-04-28T00:25:33.979Z,1012.04
2019-04-28T00:26:34.013Z,1012.07
2019-04-28T00:27:34.050Z,1012.10
2019-04-28T00:28:34.076Z,1012.01
2019-04-28T00:29:40.382Z,1012.04
2019-04-28T00:30:34.141Z,1012.05
2019-04-28T00:31:34.175Z,1012.02
2019-04-28T00:32:34.239Z,1012.04
2019-04-28T00:33:34.244Z,1012.03
2019-04-28T00:34:34.274Z,1012.04
2019-04-28T00:35:35.326Z,1012.02
2019-04-28T00:36:34.341Z,1012.07
2019-04-28T00:37:34.375Z,1012.05
2019-04-28T00:38:34.404Z,1012.08
2019-04-28T00:39:34.438Z,1012.11
2019-04-28T00:40:34.471Z,1012.08
2019-04-28T00:41:34.502Z,1012.08
2019-04-28T00:42:34.536Z,1012.05
2019-04-28T00:43:34.577Z,1012.08
2019-04-28T00:44:34.606Z,1012.09
2019-04-28T00:45:34.635Z,1012.12
2019-04-28T00:46:34.665Z,1012.10
2019-04-28T00:47:34.705Z,1012.06
2019-04-28T00:48:34.734Z,1012.09
2019-04-28T00:49:34.765Z,1012.11
2019-04-28T00:50:34.798Z,1012.12
2019-04-28T00:51:34.832Z,1012.13
2019-04-28T00:52:34.865Z,1012.13
2019-04-28T00:53:34.896Z,1012.16
2019-04-28T00:54:34.933Z,1012.18
2019-04-28T00:55:34.959Z,1012.18
2019-04-28T00:56:34.997Z,1012.22
2019-04-28T00:57:35.028Z,1012.23
2019-04-28T00:58:35.059Z,1012.21
2019-04-28T00:59:35.091Z,1012.27
2019-04-28T01:00:35.124Z,1012.25
2019-04-28T01:01:35.160Z,1012.23
2019-04-28T01:02:35.190Z,1012.24
2019-04-28T01:03:35.253Z,1012.29
2019-04-28T01:04:35.258Z,1012.30
2019-04-28T01:05:35.289Z,1012.31
2019-04-28T01:06:35.322Z,1012.32
2019-04-28T01:07:35.352Z,1012.32
2019-04-28T01:08:35.388Z,1012.36
2019-04-28T01:09:35.417Z,1012.34
2019-04-28T01:10:35.448Z,1012.40
2019-04-28T01:11:35.480Z,1012.38
2019-04-28T01:12:35.518Z,1012.37
2019-04-28T01:13:35.550Z,1012.43
2019-04-28T01:14:35.586Z,1012.42
2019-04-28T01:15:35.613Z,1012.40
2019-04-28T01:16:35.648Z,1012.40
2019-04-28T01:17:35.678Z,1012.42
2019-04-28T01:18:35.708Z,1012.42
2019-04-28T01:19:35.741Z,1012.42
2019-04-28T01:20:35.781Z,1012.38
2019-04-28T01:21:35.809Z,1012.39
2019-04-28T01:22:35.841Z,1012.41
2019-04-28T01:23:35.870Z,1012.38
2019-04-28T01:24:35.903Z,1012.40
2019-04-28T01:25:35.935Z,1012.45
2019-04-28T01:26:35.968Z,1012.39
2019-04-28T01:27:36.009Z,1012.43
2019-04-28T01:28:36.038Z,1012.39
2019-04-28T01:29:36.065Z,1012.44
2019-04-28T01:30:36.095Z,1012.45
2019-04-28T01:31:36.146Z,1012.45
2019-04-28T01:32:36.165Z,1012.48
2019-04-28T01:33:36.195Z,1012.44
2019-04-28T01:34:36.229Z,1012.41
2019-04-28T01:35:36.260Z,1012.42
2019-04-28T01:36:36.295Z,1012.43
2019-04-28T01:37:36.323Z,1012.44
2019-04-28T01:38:36.355Z,1012.45
2019-04-28T01:39:36.387Z,1012.47
2019-04-28T01:40:36.418Z,1012.50
2019-04-28T01:41:36.451Z,1012.50
2019-04-28T01:42:36.483Z,1012.48
2019-04-28T01:43:36.515Z,1012.48
2019-04-28T01:44:36.548Z,1012.51
2019-04-28T01:45:36.582Z,1012.48
2019-04-28T01:46:36.610Z,1012.51
2019-04-28T01:47:36.643Z,1012.55
2019-04-28T01:48:36.674Z,1012.55
2019-04-28T01:49:36.709Z,1012.56
2019-04-28T01:50:36.744Z,1012.61
2019-04-28T01:51:36.772Z,1012.63
2019-04-28T01:52:36.802Z,1012.62
2019-04-28T01:53:36.834Z,1012.64
2019-04-28T01:54:36.865Z,1012.63
2019-04-28T01:55:36.898Z,1012.65
2019-04-28T01:56:36.930Z,1012.62
2019-04-28T01:57:36.962Z,1012.61
2019-04-28T01:58:36.997Z,1012.62
2019-04-28T01:59:37.025Z,1012.66
2019-04-28T02:00:37.056Z,1012.60
2019-04-28T02:01:37.094Z,1012.67
2019-04-28T02:02:37.123Z,1012.65
2019-04-28T02:03:37.152Z,1012.66
2019-04-28T02:04:37.187Z,1012.64
2019-04-28T02:05:37.230Z,1012.69
2019-04-28T02:06:37.249Z,1012.69
2019-04-28T02:07:37.279Z,1012.73
2019-04-28T02:08:37.313Z,1012.73
2019-04-28T02:09:37.343Z,1012.73
2019-04-28T02:10:37.375Z,1012.76
2019-04-28T02:11:39.139Z,1012.77
2019-04-28T02:12:37.438Z,1012.83
2019-04-28T02:13:37.471Z,1012.81
2019-04-28T02:14:37.503Z,1012.81
2019-04-28T02:15:37.534Z,1012.82
2019-04-28T02:16:37.565Z,1012.86
2019-04-28T02:17:37.601Z,1012.89
2019-04-28T02:18:37.628Z,1012.90
2019-04-28T02:19:37.664Z,1012.91
2019-04-28T02:20:39.310Z,1012.91
2019-04-28T02:21:39.463Z,1012.91
2019-04-28T02:22:37.757Z,1012.90
2019-04-28T02:23:39.589Z,1012.93
2019-04-28T02:24:37.819Z,1012.93
2019-04-28T02:25:39.795Z,1012.98
2019-04-28T02:26:37.885Z,1012.98
2019-04-28T02:27:39.926Z,1012.97
2019-04-28T02:28:37.946Z,1013.02
2019-04-28T02:29:41.434Z,1013.05
2019-04-28T02:30:47.684Z,1013.05
2019-04-28T02:31:38.039Z,1013.06
2019-04-28T02:32:40.744Z,1013.08
2019-04-28T02:33:40.623Z,1013.05
2019-04-28T02:34:40.692Z,1013.05
2019-04-28T02:35:38.243Z,1013.05
2019-04-28T02:36:40.540Z,1013.05
2019-04-28T02:37:40.572Z,1013.04
2019-04-28T02:38:41.030Z,1013.06
2019-04-28T02:39:40.645Z,1013.02
2019-04-28T02:40:40.618Z,1013.04
2019-04-28T02:41:40.962Z,1013.07
2019-04-28T02:42:40.985Z,1013.06
2019-04-28T02:43:40.831Z,1013.04
2019-04-28T02:44:40.448Z,1013.07
2019-04-28T02:45:40.959Z,1013.11
2019-04-28T02:46:40.815Z,1013.06
2019-04-28T02:47:41.612Z,1013.11
2019-04-28T02:48:40.442Z,1013.10
2019-04-28T02:49:40.543Z,1013.12
2019-04-28T02:50:40.949Z,1013.10
2019-04-28T02:51:40.711Z,1013.11
2019-04-28T02:52:41.217Z,1013.14
2019-04-28T02:53:40.900Z,1013.15
2019-04-28T02:54:40.441Z,1013.13
2019-04-28T02:55:41.071Z,1013.14
2019-04-28T02:56:40.896Z,1013.17
2019-04-28T02:57:40.651Z,1013.17
2019-04-28T02:58:41.527Z,1013.13
2019-04-28T02:59:40.926Z,1013.14
2019-04-28T03:00:41.156Z,1013.19
2019-04-28T03:01:40.868Z,1013.20
2019-04-28T03:02:41.380Z,1013.22
2019-04-28T03:03:40.855Z,1013.21
2019-04-28T03:04:40.900Z,1013.23
2019-04-28T03:05:41.251Z,1013.23
2019-04-28T03:06:40.706Z,1013.24
2019-04-28T03:07:40.937Z,1013.26
2019-04-28T03:08:40.516Z,1013.31
2019-04-28T03:09:40.349Z,1013.27
2019-04-28T03:10:41.014Z,1013.29
2019-04-28T03:11:42.746Z,1013.34
2019-04-28T03:12:41.425Z,1013.29
2019-04-28T03:13:41.220Z,1013.26
2019-04-28T03:14:43.338Z,1013.28
2019-04-28T03:15:41.445Z,1013.29
2019-04-28T03:16:41.011Z,1013.30
2019-04-28T03:17:40.732Z,1013.34
2019-04-28T03:18:41.250Z,1013.37
2019-04-28T03:19:41.636Z,1013.38
2019-04-28T03:20:41.823Z,1013.39
2019-04-28T03:21:41.621Z,1013.37
2019-04-28T03:22:40.780Z,1013.36
2019-04-28T03:23:40.529Z,1013.36
2019-04-28T03:24:41.325Z,1013.43
2019-04-28T03:25:40.712Z,1013.42
2019-04-28T03:26:41.507Z,1013.43
2019-04-28T03:27:40.514Z,1013.44
2019-04-28T03:28:41.388Z,1013.45
2019-04-28T03:29:40.520Z,1013.45
2019-04-28T03:30:43.856Z,1013.47
2019-04-28T03:32:04.146Z,1013.44
2019-04-28T03:32:52.070Z,1013.44
2019-04-28T03:33:47.147Z,1013.45
2019-04-28T03:34:43.679Z,1013.46
2019-04-28T03:35:43.926Z,1013.50
2019-04-28T03:36:40.892Z,1013.55
2019-04-28T03:37:41.334Z,1013.59
2019-04-28T03:38:40.689Z,1013.54
2019-04-28T03:39:40.593Z,1013.53
2019-04-28T03:40:41.440Z,1013.57
2019-04-28T03:41:40.629Z,1013.57
2019-04-28T03:42:41.097Z,1013.57
2019-04-28T03:43:40.736Z,1013.61
2019-04-28T03:44:41.460Z,1013.64
2019-04-28T03:45:41.125Z,1013.63
2019-04-28T03:46:41.348Z,1013.62
2019-04-28T03:47:40.942Z,1013.65
2019-04-28T03:48:41.079Z,1013.69
2019-04-28T03:49:43.207Z,1013.68
2019-04-28T03:50:41.454Z,1013.72
2019-04-28T03:51:40.834Z,1013.75
2019-04-28T03:52:41.476Z,1013.78
2019-04-28T03:53:41.155Z,1013.77
2019-04-28T03:54:41.226Z,1013.78
2019-04-28T03:55:41.567Z,1013.74
2019-04-28T03:56:41.354Z,1013.79
2019-04-28T03:57:41.375Z,1013.82
2019-04-28T03:58:40.890Z,1013.81
2019-04-28T03:59:43.557Z,1013.80
2019-04-28T04:00:41.106Z,1013.84
2019-04-28T04:01:55.957Z,1013.88
2019-04-28T04:02:41.344Z,1013.88
2019-04-28T04:03:41.719Z,1013.86
2019-04-28T04:04:41.601Z,1013.94
2019-04-28T04:05:41.046Z,1013.91
2019-04-28T04:06:41.072Z,1013.91
2019-04-28T04:07:43.195Z,1013.94
2019-04-28T04:08:41.138Z,1014.02
2019-04-28T04:09:41.336Z,1013.96
2019-04-28T04:10:41.201Z,1013.99
2019-04-28T04:11:41.255Z,1014.00
2019-04-28T04:12:41.467Z,1014.04
2019-04-28T04:13:41.774Z,1014.03
2019-04-28T04:14:41.407Z,1014.06
2019-04-28T04:15:41.481Z,1014.05
2019-04-28T04:16:41.403Z,1014.10
2019-04-28T04:17:41.544Z,1014.08
2019-04-28T04:18:41.469Z,1014.11
2019-04-28T04:19:41.502Z,1014.15
2019-04-28T04:20:41.536Z,1014.18
2019-04-28T04:21:41.574Z,1014.18
2019-04-28T04:22:41.608Z,1014.20
2019-04-28T04:23:41.637Z,1014.19
2019-04-28T04:24:41.672Z,1014.18
2019-04-28T04:25:42.008Z,1014.24
2019-04-28T04:26:41.737Z,1014.26
2019-04-28T04:27:41.774Z,1014.31
2019-04-28T04:28:42.048Z,1014.29
2019-04-28T04:29:43.657Z,1014.30
2019-04-28T04:30:41.876Z,1014.35
2019-04-28T04:31:41.921Z,1014.38
2019-04-28T04:32:41.943Z,1014.37
2019-04-28T04:33:41.979Z,1014.42
2019-04-28T04:34:42.012Z,1014.44
2019-04-28T04:35:43.710Z,1014.46
2019-04-28T04:36:42.092Z,1014.46
2019-04-28T04:37:42.115Z,1014.47
2019-04-28T04:38:45.809Z,1014.47
2019-04-28T04:39:42.183Z,1014.45
2019-04-28T04:40:42.225Z,1014.47
2019-04-28T04:41:43.796Z,1014.48
2019-04-28T04:42:42.290Z,1014.43
2019-04-28T04:43:42.323Z,1014.43
2019-04-28T04:44:42.360Z,1014.43
2019-04-28T04:45:42.395Z,1014.44
2019-04-28T04:46:42.434Z,1014.50
2019-04-28T04:47:42.465Z,1014.48
2019-04-28T04:48:42.499Z,1014.53
2019-04-28T04:49:42.538Z,1014.55
2019-04-28T04:50:42.568Z,1014.55
2019-04-28T04:51:43.909Z,1014.53
2019-04-28T04:52:42.645Z,1014.54
2019-04-28T04:53:42.677Z,1014.52
2019-04-28T04:54:42.724Z,1014.61
2019-04-28T04:55:42.756Z,1014.63
2019-04-28T04:56:42.785Z,1014.61
2019-04-28T04:57:42.820Z,1014.60
2019-04-28T04:58:42.856Z,1014.64
2019-04-28T04:59:42.894Z,1014.61
2019-04-28T05:00:43.379Z,1014.62
2019-04-28T05:01:42.975Z,1014.65
2019-04-28T05:02:51.278Z,1014.67
2019-04-28T05:03:43.040Z,1014.62
2019-04-28T05:04:43.077Z,1014.68
2019-04-28T05:05:43.122Z,1014.65
2019-04-28T05:06:43.152Z,1014.66
2019-04-28T05:07:43.190Z,1014.64
2019-04-28T05:08:43.231Z,1014.66
2019-04-28T05:09:43.267Z,1014.70
2019-04-28T05:10:43.305Z,1014.73
2019-04-28T05:11:43.342Z,1014.71
2019-04-28T05:12:43.381Z,1014.71
2019-04-28T05:13:43.422Z,1014.70
2019-04-28T05:14:43.459Z,1014.62
2019-04-28T05:15:43.495Z,1014.71
2019-04-28T05:16:43.533Z,1014.68
2019-04-28T05:17:43.578Z,1014.65
2019-04-28T05:18:43.613Z,1014.71
2019-04-28T05:19:43.652Z,1014.69
2019-04-28T05:20:43.692Z,1014.72
2019-04-28T05:21:43.734Z,1014.76
2019-04-28T05:22:43.770Z,1014.75
2019-04-28T05:23:43.809Z,1014.83
2019-04-28T05:24:46.165Z,1014.82
2019-04-28T05:25:43.888Z,1014.83
2019-04-28T05:26:47.876Z,1014.83
2019-04-28T05:27:43.986Z,1014.85
2019-04-28T05:28:50.569Z,1014.90
2019-04-28T05:29:44.049Z,1014.85
2019-04-28T05:30:44.087Z,1014.87
2019-04-28T05:31:44.129Z,1014.92
2019-04-28T05:32:49.510Z,1014.92
2019-04-28T05:33:44.205Z,1014.93
2019-04-28T05:34:46.713Z,1015.00
2019-04-28T05:35:44.284Z,1015.01
2019-04-28T05:36:44.805Z,1015.03
2019-04-28T05:37:44.368Z,1015.09
2019-04-28T05:38:44.404Z,1015.12
2019-04-28T05:39:44.444Z,1015.10
2019-04-28T05:40:44.484Z,1015.17
2019-04-28T05:41:44.525Z,1015.20
2019-04-28T05:42:44.568Z,1015.20
2019-04-28T05:43:44.606Z,1015.26
2019-04-28T05:44:44.648Z,1015.29
2019-04-28T05:45:44.698Z,1015.30
2019-04-28T05:46:44.733Z,1015.36
2019-04-28T05:47:44.772Z,1015.38
2019-04-28T05:48:44.811Z,1015.41
2019-04-28T05:49:44.857Z,1015.45
2019-04-28T05:50:44.890Z,1015.50
2019-04-28T05:51:44.934Z,1015.50
2019-04-28T05:52:44.973Z,1015.48
2019-04-28T05:53:45.015Z,1015.60
2019-04-28T05:54:45.055Z,1015.61
2019-04-28T05:55:45.097Z,1015.65
2019-04-28T05:56:45.140Z,1015.68
2019-04-28T05:57:45.183Z,1015.62
2019-04-28T05:58:45.232Z,1015.62
2019-04-28T05:59:45.266Z,1015.66
2019-04-28T06:00:45.309Z,1015.65
2019-04-28T06:01:45.352Z,1015.63
2019-04-28T06:02:55.535Z,1015.70
2019-04-28T06:03:45.428Z,1015.69
2019-04-28T06:04:45.468Z,1015.70
2019-04-28T06:05:45.515Z,1015.70
2019-04-28T06:06:45.553Z,1015.65
2019-04-28T06:07:45.597Z,1015.73
2019-04-28T06:08:45.637Z,1015.67
2019-04-28T06:09:45.680Z,1015.71
2019-04-28T06:10:45.721Z,1015.68
2019-04-28T06:11:45.762Z,1015.59
2019-04-28T06:12:45.805Z,1015.60
2019-04-28T06:13:45.847Z,1015.63
2019-04-28T06:14:45.890Z,1015.65
2019-04-28T06:15:45.931Z,1015.65
2019-04-28T06:16:45.974Z,1015.69
2019-04-28T06:17:46.017Z,1015.66
2019-04-28T06:18:46.057Z,1015.71
2019-04-28T06:19:46.101Z,1015.68
2019-04-28T06:20:46.144Z,1015.75
2019-04-28T06:21:46.184Z,1015.74
2019-04-28T06:22:46.227Z,1015.74
2019-04-28T06:23:46.271Z,1015.75
2019-04-28T06:24:46.318Z,1015.68
2019-04-28T06:25:46.355Z,1015.76
2019-04-28T06:26:46.400Z,1015.74
2019-04-28T06:27:46.442Z,1015.78
2019-04-28T06:28:46.483Z,1015.80
2019-04-28T06:29:46.526Z,1015.84
2019-04-28T06:30:46.569Z,1015.84
2019-04-28T06:31:46.609Z,1015.88
2019-04-28T06:32:46.661Z,1015.88
2019-04-28T06:33:46.703Z,1015.85
2019-04-28T06:34:46.738Z,1015.91
2019-04-28T06:35:46.784Z,1015.91
2019-04-28T06:36:46.826Z,1015.92
2019-04-28T06:37:46.869Z,1015.91
2019-04-28T06:38:46.910Z,1016.00
2019-04-28T06:39:47.388Z,1015.99
2019-04-28T06:40:46.996Z,1016.00
2019-04-28T06:41:47.042Z,1015.99
2019-04-28T06:42:47.085Z,1015.97
2019-04-28T06:43:47.125Z,1016.04
2019-04-28T06:44:47.169Z,1015.98
2019-04-28T06:45:47.213Z,1016.00
2019-04-28T06:46:47.257Z,1015.99
2019-04-28T06:47:47.299Z,1015.98
2019-04-28T06:48:47.344Z,1015.99
2019-04-28T06:49:47.450Z,1016.03
2019-04-28T06:50:47.427Z,1016.00
2019-04-28T06:51:47.474Z,1016.11
2019-04-28T06:52:47.515Z,1016.12
2019-04-28T06:53:47.558Z,1016.11
2019-04-28T06:54:47.606Z,1016.10
2019-04-28T06:55:47.646Z,1016.03
2019-04-28T06:56:47.687Z,1016.08
2019-04-28T06:57:47.734Z,1016.11
2019-04-28T06:58:58.433Z,1016.07
2019-04-28T06:59:47.818Z,1016.09
2019-04-28T07:00:47.856Z,1016.12
2019-04-28T07:01:47.900Z,1016.15
2019-04-28T07:02:47.940Z,1016.17
2019-04-28T07:03:47.983Z,1016.23
2019-04-28T07:04:48.026Z,1016.21
2019-04-28T07:05:48.066Z,1016.25
2019-04-28T07:06:48.111Z,1016.23
2019-04-28T07:07:48.150Z,1016.25
2019-04-28T07:08:48.195Z,1016.32
2019-04-28T07:09:48.234Z,1016.32
2019-04-28T07:10:48.272Z,1016.34
2019-04-28T07:11:48.315Z,1016.39
2019-04-28T07:12:48.355Z,1016.30
2019-04-28T07:13:48.396Z,1016.39
2019-04-28T07:14:48.437Z,1016.40
2019-04-28T07:15:48.481Z,1016.34
2019-04-28T07:16:48.518Z,1016.48
2019-04-28T07:17:48.561Z,1016.41
2019-04-28T07:18:48.601Z,1016.47
2019-04-28T07:19:48.641Z,1016.42
2019-04-28T07:20:48.683Z,1016.39
2019-04-28T07:21:48.726Z,1016.40
2019-04-28T07:22:48.765Z,1016.41
2019-04-28T07:23:48.806Z,1016.41
2019-04-28T07:24:48.852Z,1016.46
2019-04-28T07:25:48.891Z,1016.50
2019-04-28T07:26:48.931Z,1016.49
2019-04-28T07:27:48.971Z,1016.60
2019-04-28T07:28:49.018Z,1016.58
2019-04-28T07:29:49.056Z,1016.60
2019-04-28T07:30:49.097Z,1016.58
2019-04-28T07:31:49.138Z,1016.61
2019-04-28T07:32:49.188Z,1016.62
2019-04-28T07:33:49.225Z,1016.63
2019-04-28T07:34:49.266Z,1016.55
2019-04-28T07:35:49.309Z,1016.61
2019-04-28T07:36:49.352Z,1016.68
2019-04-28T07:37:49.398Z,1016.65
2019-04-28T07:38:49.438Z,1016.64
2019-04-28T07:39:49.478Z,1016.68
2019-04-28T07:40:49.522Z,1016.65
2019-04-28T07:41:49.565Z,1016.70
2019-04-28T07:42:49.609Z,1016.75
2019-04-28T07:43:49.654Z,1016.75
2019-04-28T07:44:49.696Z,1016.76
2019-04-28T07:45:49.739Z,1016.68
2019-04-28T07:46:49.783Z,1016.73
2019-04-28T07:47:49.830Z,1016.77
2019-04-28T07:48:52.296Z,1016.80
2019-04-28T07:49:49.919Z,1016.84
2019-04-28T07:50:49.964Z,1016.85
2019-04-28T07:51:50.010Z,1016.85
2019-04-28T07:52:50.049Z,1016.86
2019-04-28T07:53:50.095Z,1016.86
2019-04-28T07:54:50.173Z,1016.88
2019-04-28T07:55:50.214Z,1016.90
2019-04-28T07:56:50.227Z,1016.93
2019-04-28T07:57:50.272Z,1016.90
2019-04-28T07:58:50.317Z,1016.99
2019-04-28T07:59:50.367Z,1016.99
2019-04-28T08:00:50.405Z,1016.98
2019-04-28T08:01:50.451Z,1017.03
2019-04-28T08:02:50.509Z,1017.00
2019-04-28T08:03:50.540Z,1016.96
2019-04-28T08:04:50.587Z,1016.96
2019-04-28T08:05:50.632Z,1016.95
2019-04-28T08:06:50.674Z,1017.04
2019-04-28T08:07:50.722Z,1017.00
2019-04-28T08:08:50.781Z,1017.03
2019-04-28T08:09:50.821Z,1017.01
2019-04-28T08:10:50.878Z,1017.00
2019-04-28T08:11:50.917Z,1017.03
2019-04-28T08:12:50.972Z,1017.07
2019-04-28T08:13:51.019Z,1017.07
2019-04-28T08:14:51.050Z,1017.11
2019-04-28T08:15:51.093Z,1017.16
2019-04-28T08:16:51.164Z,1017.13
2019-04-28T08:17:51.185Z,1017.16
2019-04-28T08:18:51.257Z,1017.17
2019-04-28T08:19:51.303Z,1017.24
2019-04-28T08:20:51.330Z,1017.25
2019-04-28T08:21:51.377Z,1017.28
2019-04-28T08:22:51.431Z,1017.23
2019-04-28T08:23:51.472Z,1017.25
2019-04-28T08:24:51.522Z,1017.24
2019-04-28T08:25:51.548Z,1017.26
2019-04-28T08:26:51.619Z,1017.24
2019-04-28T08:27:51.672Z,1017.22
2019-04-28T08:28:51.711Z,1017.26
2019-04-28T08:29:58.339Z,1017.27
2019-04-28T08:30:51.801Z,1017.21
2019-04-28T08:31:51.831Z,1017.28
2019-04-28T08:32:51.894Z,1017.34
2019-04-28T08:34:01.747Z,1017.29
2019-04-28T08:34:51.971Z,1017.27
2019-04-28T08:35:52.011Z,1017.23
2019-04-28T08:36:52.074Z,1017.30
2019-04-28T08:37:52.125Z,1017.36
2019-04-28T08:38:52.176Z,1017.36
2019-04-28T08:39:52.214Z,1017.37
2019-04-28T08:40:52.260Z,1017.35
2019-04-28T08:41:52.314Z,1017.32
2019-04-28T08:42:52.343Z,1017.32
2019-04-28T08:43:52.411Z,1017.33
2019-04-28T08:44:52.435Z,1017.37
2019-04-28T08:45:52.494Z,1017.34
2019-04-28T08:46:52.544Z,1017.36
2019-04-28T08:47:52.593Z,1017.36
2019-04-28T08:48:52.640Z,1017.35
2019-04-28T08:49:52.678Z,1017.41
2019-04-28T08:50:52.736Z,1017.35
2019-04-28T08:51:52.789Z,1017.35
2019-04-28T08:52:52.834Z,1017.44
2019-04-28T08:53:52.881Z,1017.43
2019-04-28T08:54:52.915Z,1017.48
2019-04-28T08:55:52.970Z,1017.43
2019-04-28T08:56:53.023Z,1017.43
2019-04-28T08:57:53.070Z,1017.37
2019-04-28T08:58:53.095Z,1017.49
2019-04-28T08:59:53.150Z,1017.55
2019-04-28T09:00:53.208Z,1017.57
2019-04-28T09:01:53.246Z,1017.52
2019-04-28T09:02:53.286Z,1017.50
2019-04-28T09:03:53.333Z,1017.48
2019-04-28T09:04:53.377Z,1017.52
2019-04-28T09:05:53.425Z,1017.59
2019-04-28T09:06:53.475Z,1017.53
2019-04-28T09:07:53.527Z,1017.55
2019-04-28T09:08:53.580Z,1017.55
2019-04-28T09:09:53.610Z,1017.57
2019-04-28T09:10:53.652Z,1017.55
2019-04-28T09:11:53.721Z,1017.57
2019-04-28T09:12:53.737Z,1017.55
2019-04-28T09:13:53.815Z,1017.58
2019-04-28T09:14:53.853Z,1017.56
2019-04-28T09:15:53.886Z,1017.61
2019-04-28T09:16:53.924Z,1017.59
2019-04-28T09:17:53.986Z,1017.60
2019-04-28T09:18:54.019Z,1017.67
2019-04-28T09:19:54.086Z,1017.59
2019-04-28T09:20:54.111Z,1017.66
2019-04-28T09:21:54.188Z,1017.65
2019-04-28T09:22:54.412Z,1017.72
2019-04-28T09:23:54.268Z,1017.65
2019-04-28T09:24:54.317Z,1017.70
2019-04-28T09:25:54.362Z,1017.70
2019-04-28T09:26:54.392Z,1017.76
2019-04-28T09:27:54.465Z,1017.74
2019-04-28T09:28:54.511Z,1017.76
2019-04-28T09:29:54.556Z,1017.74
2019-04-28T09:30:54.646Z,1017.69
2019-04-28T09:31:54.650Z,1017.75
2019-04-28T09:32:54.674Z,1017.75
2019-04-28T09:33:54.748Z,1017.80
2019-04-28T09:34:54.792Z,1017.75
2019-04-28T09:35:54.830Z,1017.76
2019-04-28T09:36:54.871Z,1017.71
2019-04-28T09:37:54.929Z,1017.72
2019-04-28T09:38:54.970Z,1017.71
2019-04-28T09:39:55.034Z,1017.80
2019-04-28T09:40:55.087Z,1017.80
2019-04-28T09:41:55.130Z,1017.84
2019-04-28T09:42:55.161Z,1017.82
2019-04-28T09:43:55.196Z,1017.81
2019-04-28T09:44:55.244Z,1017.88
2019-04-28T09:45:55.311Z,1017.82
2019-04-28T09:46:55.337Z,1017.89
2019-04-28T09:47:55.386Z,1017.86
2019-04-28T09:48:55.434Z,1017.86
2019-04-28T09:49:55.493Z,1017.83
2019-04-28T09:50:55.528Z,1017.87
2019-04-28T09:51:55.577Z,1017.84
2019-04-28T09:52:55.658Z,1017.88
2019-04-28T09:53:55.671Z,1017.87
2019-04-28T09:54:55.727Z,1017.87
2019-04-28T09:55:55.765Z,1017.88
2019-04-28T09:56:57.118Z,1017.88
2019-04-28T09:57:55.899Z,1017.86
2019-04-28T09:58:55.912Z,1017.92
2019-04-28T09:59:55.956Z,1017.87
2019-04-28T10:00:56.005Z,1017.94
2019-04-28T10:01:56.052Z,1017.91
2019-04-28T10:02:56.108Z,1017.93
2019-04-28T10:03:56.155Z,1017.92
2019-04-28T10:04:56.195Z,1017.95
2019-04-28T10:05:56.243Z,1017.98
2019-04-28T10:06:56.289Z,1017.97
2019-04-28T10:07:56.338Z,1017.97
2019-04-28T10:08:56.385Z,1018.01
2019-04-28T10:09:56.437Z,1018.00
2019-04-28T10:10:56.486Z,1017.94
2019-04-28T10:11:56.533Z,1017.98
2019-04-28T10:12:56.577Z,1017.95
2019-04-28T10:13:57.064Z,1017.92
2019-04-28T10:14:56.740Z,1017.94
2019-04-28T10:15:56.722Z,1017.94
2019-04-28T10:16:56.772Z,1017.94
2019-04-28T10:17:56.821Z,1017.90
2019-04-28T10:18:56.865Z,1017.98
2019-04-28T10:19:56.914Z,1018.00
2019-04-28T10:20:56.962Z,1017.97
2019-04-28T10:21:57.013Z,1017.99
2019-04-28T10:22:57.058Z,1018.00
2019-04-28T10:23:57.105Z,1018.02
2019-04-28T10:24:57.152Z,1018.02
2019-04-28T10:25:57.206Z,1018.04
2019-04-28T10:26:57.250Z,1018.03
2019-04-28T10:27:57.301Z,1018.04
2019-04-28T10:28:57.347Z,1018.04
2019-04-28T10:29:57.395Z,1018.02
2019-04-28T10:30:57.445Z,1018.07
2019-04-28T10:31:57.492Z,1018.01
2019-04-28T10:32:57.539Z,1018.03
2019-04-28T10:33:57.588Z,1018.10
2019-04-28T10:34:57.639Z,1018.14
2019-04-28T10:35:57.684Z,1018.14
2019-04-28T10:36:57.732Z,1018.10
2019-04-28T10:37:57.780Z,1018.16
2019-04-28T10:38:57.834Z,1018.13
2019-04-28T10:39:57.877Z,1018.13
2019-04-28T10:40:57.925Z,1018.20
2019-04-28T10:41:57.972Z,1018.19
2019-04-28T10:42:58.033Z,1018.16
2019-04-28T10:43:58.071Z,1018.13
2019-04-28T10:44:58.115Z,1018.09
2019-04-28T10:45:58.164Z,1018.10
2019-04-28T10:46:58.215Z,1018.07
2019-04-28T10:47:58.262Z,1018.16
2019-04-28T10:48:58.308Z,1018.13
2019-04-28T10:49:58.358Z,1018.10
2019-04-28T10:51:01.138Z,1018.13
2019-04-28T10:51:59.506Z,1018.13
2019-04-28T10:52:58.700Z,1018.12
2019-04-28T10:53:58.551Z,1018.13
2019-04-28T10:54:58.594Z,1018.15
2019-04-28T10:55:58.661Z,1018.13
2019-04-28T10:56:58.694Z,1018.14
2019-04-28T10:57:58.737Z,1018.12
2019-04-28T10:58:58.788Z,1018.18
2019-04-28T10:59:58.833Z,1018.17
2019-04-28T11:00:58.883Z,1018.15
2019-04-28T11:01:58.932Z,1018.19
2019-04-28T11:02:58.975Z,1018.11
2019-04-28T11:03:59.081Z,1018.17
2019-04-28T11:05:08.085Z,1018.16
2019-04-28T11:05:59.123Z,1018.16
2019-04-28T11:06:59.168Z,1018.21
2019-04-28T11:07:59.215Z,1018.19
2019-04-28T11:08:59.265Z,1018.19
2019-04-28T11:09:59.311Z,1018.27
2019-04-28T11:10:59.359Z,1018.25
2019-04-28T11:11:59.434Z,1018.28
2019-04-28T11:12:59.459Z,1018.27
2019-04-28T11:13:59.506Z,1018.24
2019-04-28T11:14:59.551Z,1018.32
2019-04-28T11:16:00.295Z,1018.36
2019-04-28T11:16:59.646Z,1018.34
2019-04-28T11:17:59.694Z,1018.37
2019-04-28T11:18:59.741Z,1018.39
2019-04-28T11:19:59.791Z,1018.44
2019-04-28T11:20:59.840Z,1018.39
2019-04-28T11:21:59.886Z,1018.41
2019-04-28T11:22:59.935Z,1018.36
2019-04-28T11:23:59.983Z,1018.35
2019-04-28T11:25:00.032Z,1018.37
2019-04-28T11:26:00.079Z,1018.33
2019-04-28T11:27:00.134Z,1018.35
2019-04-28T11:28:00.176Z,1018.39
2019-04-28T11:29:00.226Z,1018.34
2019-04-28T11:30:00.274Z,1018.37
2019-04-28T11:31:00.320Z,1018.38
2019-04-28T11:32:00.368Z,1018.33
2019-04-28T11:33:00.421Z,1018.39
2019-04-28T11:34:00.465Z,1018.40
2019-04-28T11:35:00.513Z,1018.42
2019-04-28T11:36:00.562Z,1018.40
2019-04-28T11:37:00.611Z,1018.42
2019-04-28T11:38:00.662Z,1018.43
2019-04-28T11:39:00.707Z,1018.41
2019-04-28T11:40:00.753Z,1018.44
2019-04-28T11:41:00.808Z,1018.44
2019-04-28T11:42:00.850Z,1018.47
2019-04-28T11:43:00.899Z,1018.43
2019-04-28T11:44:00.947Z,1018.44
2019-04-28T11:45:00.998Z,1018.41
2019-04-28T11:46:01.045Z,1018.45
2019-04-28T11:47:01.091Z,1018.44
2019-04-28T11:48:01.140Z,1018.42
2019-04-28T11:49:01.189Z,1018.45
2019-04-28T11:50:01.249Z,1018.45
2019-04-28T11:51:01.292Z,1018.37
2019-04-28T11:52:01.338Z,1018.44
2019-04-28T11:53:01.386Z,1018.39
2019-04-28T11:54:01.430Z,1018.44
2019-04-28T11:55:01.477Z,1018.43
2019-04-28T11:56:01.529Z,1018.42
2019-04-28T11:57:01.580Z,1018.41
2019-04-28T11:58:01.625Z,1018.45
2019-04-28T11:59:01.671Z,1018.46
2019-04-28T12:00:01.723Z,1018.44
2019-04-28T12:01:01.768Z,1018.46
2019-04-28T12:02:01.819Z,1018.47
2019-04-28T12:03:01.866Z,1018.45
2019-04-28T12:04:01.915Z,1018.41
2019-04-28T12:05:01.967Z,1018.44
2019-04-28T12:06:02.010Z,1018.51